Decoded Metar for SARF (FORMOSA in ARGENTINA) (IATA:FMA) | Meteo·Mobile Aviation Weather
aviador You're here:

SARF Decoded Metar

FORMOSA in ARGENTINA
Report Time2019-01-20 10:00:00
UTC Time2019-01-20 11:01:16
Flight Rules ifr IFR
Wind230° at 05 kt
W.Decomp.*RWY 22: 4.6 kt HW 1.9 kt RCW
W.Rank230° ranks 6
Current wind is below 230° avg. (6.7)
Visibility9999 m
Phenomena:N/A
Clouds:Overcast 007 Hf
Ceiling700 ft
Temp20°C (ISA +5)
Dew Point20°C (100% RH)
QNH1015 hPa
Density Alt1,070 ft
Elevation197 ft
Report Wrong Elevation
Raw Report
METAR SARF 201000Z 23005KT 9999 OVC007 20/20 Q1015=

Extra information for SARF:More info

Metar Taf Metar & Taf Last 4 Metars F.Rules Stats Wind Profile Meteogram Temp Stats Airport Information Weather charts Add Link Nearby VenuesMetar ALERT Operation Metar Decoded Social comments